Latest Weather Observations for Rowley Shoals

IDW60801

Issued at 5:33 pm WST Tuesday 21 April 2015 (issued every 30 minutes, with the page automatically refreshed every 10 minutes)

About weather observations | Map of weather stations | Latest weather observations for WA | Other Formats
Station Details ID: 200713 Name: ROWLEY SHOALS Lat: -17.52 Lon: 118.95 Height: 0.0 m
Data from the previous 72 hours. | See also: Recent months for locations in Western Australia
Date/Time
WST
Temp
°C
App
Temp
°C
Dew
Point
Rel
Hum
%
Delta-T
°C
Wind Press
QNH
hPa
Press
MSL
hPa
Rain
since 9 am
mm
Dir
 
Spd
km/h
Gust
km/h
Spd
kts
Gust
kts
21/05:30pm - - - - - NNE 35 41 19 22 1006.1 1006.1 -
21/05:00pm - - - - - NE 35 41 19 22 1006.3 1006.1 -
21/04:30pm - - - - - ENE 24 28 13 15 1006.3 1006.3 -
21/04:00pm - - - - - NE 22 30 12 16 1006.2 1006.1 -
21/03:30pm - - - - - ENE 13 17 7 9 1006.3 1006.3 -
21/03:00pm - - - - - ENE 15 17 8 9 1006.7 1006.4 -
21/02:30pm - - - - - NE 13 19 7 10 1007.0 1007.0 -
21/02:00pm - - - - - NW 15 20 8 11 1007.4 1007.4 -
21/01:30pm - - - - - NNW 24 35 13 19 1007.6 1007.6 -
21/01:00pm - - - - - NW 24 32 13 17 1007.8 1008.0 -
21/12:30pm - - - - - N 32 43 17 23 1007.4 1007.4 -
21/12:17pm - - - - - NNE 35 59 19 32 1007.8 1007.8 -
21/12:14pm - - - - - NE 33 59 18 32 1007.7 1007.7 -
21/12:11pm - - - - - NE 30 57 16 31 1007.9 1007.9 -
21/12:00pm - - - - - ENE 30 41 16 22 1007.6 1007.7 -
21/11:55am - - - - - ENE 32 43 17 23 1007.5 1007.5 -
21/11:30am - - - - - NE 41 50 22 27 1008.4 1008.4 -
21/11:00am - - - - - NE 48 59 26 32 1008.0 1007.7 -
21/10:30am - - - - - NE 48 57 26 31 1007.6 1007.6 -
21/10:00am - - - - - NE 54 61 29 33 1007.8 1007.6 -
21/09:30am - - - - - NE 56 67 30 36 1007.9 1007.9 -
21/09:00am - - - - - NE 56 69 30 37 1007.9 1007.8 -
21/08:39am - - - - - NE 54 72 29 39 1007.6 1007.6 -
21/08:30am - - - - - NNE 54 65 29 35 1008.1 1008.1 -
21/08:26am - - - - - NE 50 63 27 34 1007.9 1007.9 -
21/08:00am - - - - - NE 39 61 21 33 1008.7 1008.2 -
21/07:58am - - - - - NE 39 61 21 33 1008.5 1008.5 -
21/07:30am - - - - - ENE 52 61 28 33 1007.7 1007.7 -
21/07:00am - - - - - ENE 54 61 29 33 1007.5 1007.6 -
21/06:30am - - - - - ENE 56 67 30 36 1007.5 1007.5 -
21/06:00am - - - - - NE 52 61 28 33 1007.5 1007.1 -
21/05:30am - - - - - ENE 48 63 26 34 1007.1 1007.1 -
21/05:16am - - - - - ENE 52 63 28 34 1007.3 1007.3 -
21/05:04am - - - - - NE 61 76 33 41 1007.4 1007.4 -
21/05:00am - - - - - NE 67 76 36 41 1006.8 1007.3 -
21/04:38am - - - - - NE 43 69 23 37 1006.9 1006.9 -
21/04:31am - - - - - NE 44 65 24 35 1008.0 1008.0 -
21/04:30am - - - - - NE 44 65 24 35 1007.8 1007.8 -
21/04:22am - - - - - ENE 43 65 23 35 1007.5 1007.5 -
21/04:00am - - - - - NE 50 63 27 34 1008.1 1007.6 -
21/03:30am - - - - - ENE 46 56 25 30 1008.1 1008.1 -
21/03:00am - - - - - NE 52 67 28 36 1008.1 1008.0 -
21/02:30am - - - - - NE 48 59 26 32 1008.1 1008.1 -
21/02:00am - - - - - NE 48 56 26 30 1008.7 1008.4 -
21/01:30am - - - - - ENE 43 54 23 29 1009.0 1009.0 -
21/01:00am - - - - - ENE 43 52 23 28 1009.3 1009.2 -
21/12:30am - - - - - ENE 43 50 23 27 1010.3 1010.3 -
21/12:00am - - - - - NE 44 54 24 29 1010.2 1010.2 -
 
Date/Time
WST
Temp
°C
App
Temp
°C
Dew
Point
Rel
Hum
%
Delta-T
°C
Wind Press
QNH
hPa
Press
MSL
hPa
Rain
since 9 am
mm
Dir
 
Spd
km/h
Gust
km/h
Spd
kts
Gust
kts
20/11:30pm - - - - - ENE 43 52 23 28 1009.9 1009.9 -
20/11:00pm - - - - - NE 46 52 25 28 1009.7 1009.6 -
20/10:30pm - - - - - NNE 44 50 24 27 1010.4 1010.4 -
20/10:00pm - - - - - NNE 46 54 25 29 1010.5 1010.3 -
20/09:30pm - - - - - NE 35 46 19 25 1010.9 1010.9 -
20/09:00pm - - - - - NE 35 41 19 22 1011.3 1011.2 -
20/08:30pm - - - - - ENE 33 41 18 22 1011.6 1011.6 -
20/08:00pm - - - - - NE 28 35 15 19 1011.7 1011.7 -
20/07:54pm - - - - - ENE 19 32 10 17 1011.7 1011.7 -
20/07:30pm - - - - - NNE 9 15 5 8 1011.7 1011.7 -
20/07:00pm - - - - - ESE 28 33 15 18 1010.7 1011.5 -
20/06:30pm - - - - - ESE 32 37 17 20 1010.0 1010.0 -
20/06:00pm - - - - - ESE 32 37 17 20 1009.8 1009.7 -
20/05:30pm - - - - - ESE 28 32 15 17 1009.6 1009.6 -
20/05:00pm - - - - - E 30 33 16 18 1009.7 1009.5 -
20/04:30pm - - - - - ENE 32 37 17 20 1009.3 1009.3 -
20/04:00pm - - - - - ENE 26 32 14 17 1009.3 1009.2 -
20/03:30pm - - - - - ENE 37 46 20 25 1009.0 1009.0 -
20/03:00pm - - - - - ENE 30 54 16 29 1008.7 1008.9 -
20/02:59pm - - - - - ENE 28 50 15 27 1008.9 1008.9 -
20/02:30pm - - - - - E 26 32 14 17 1009.2 1009.2 -
20/02:00pm - - - - - E 32 35 17 19 1009.1 1009.0 -
20/01:30pm - - - - - E 32 39 17 21 1009.3 1009.3 -
20/01:20pm - - - - - ENE 39 46 21 25 1009.3 1009.3 -
20/01:00pm - - - - - NE 37 50 20 27 1009.6 1009.3 -
20/12:30pm - - - - - NNE 41 52 22 28 1010.1 1010.1 -
20/12:26pm - - - - - NNE 43 52 23 28 1010.2 1010.2 -
20/12:02pm - - - - - NNE 57 78 31 42 1010.3 1010.3 -
20/12:00pm - - - - - NNE 54 78 29 42 1010.0 1010.0 -
20/11:58am - - - - - NE 50 78 27 42 1009.4 1009.4 -
20/11:55am - - - - - NE 41 70 22 38 1009.8 1009.8 -
20/11:53am - - - - - ENE 39 46 21 25 1010.2 1010.2 -
20/11:30am - - - - - ENE 33 43 18 23 1010.0 1010.0 -
20/11:00am - - - - - E 35 43 19 23 1010.8 1010.5 -
20/10:30am - - - - - E 39 46 21 25 1010.5 1010.5 -
20/10:00am - - - - - E 43 50 23 27 1011.0 1010.5 -
20/09:53am - - - - - ENE 44 54 24 29 1011.1 1011.1 -
20/09:30am - - - - - ENE 43 54 23 29 1011.4 1011.4 -
20/09:07am - - - - - ENE 35 48 19 26 1010.9 1010.9 -
20/09:00am - - - - - E 41 50 22 27 1010.8 1010.8 -
20/08:30am - - - - - ENE 46 63 25 34 1010.6 1010.6 -
20/08:00am - - - - - ENE 54 65 29 35 1010.4 1010.4 -
20/07:57am - - - - - E 56 65 30 35 1010.1 1010.1 -
20/07:30am - - - - - E 52 61 28 33 1009.4 1009.4 -
20/07:00am - - - - - E 56 63 30 34 1009.4 1009.4 -
20/06:30am - - - - - E 56 65 30 35 1009.5 1009.5 -
20/06:00am - - - - - E 54 63 29 34 1009.6 1009.6 -
20/05:30am - - - - - ESE 52 61 28 33 1009.5 1009.5 -
20/05:00am - - - - - E 54 65 29 35 1009.2 1009.1 -
20/04:30am - - - - - ESE 41 50 22 27 1009.7 1009.7 -
20/04:00am - - - - - ESE 50 69 27 37 1009.5 1009.1 -
20/03:58am - - - - - ESE 52 69 28 37 1009.7 1009.7 -
20/03:30am - - - - - E 48 61 26 33 1010.0 1010.0 -
20/03:00am - - - - - E 56 63 30 34 1009.8 1009.6 -
20/02:30am - - - - - ESE 59 72 32 39 1009.8 1009.8 -
20/02:00am - - - - - ESE 57 69 31 37 1010.1 1010.0 -
20/01:30am - - - - - ESE 59 70 32 38 1010.7 1010.7 -
20/01:00am - - - - - ESE 57 69 31 37 1010.9 1010.9 -
20/12:30am - - - - - ESE 59 69 32 37 1011.4 1011.4 -
20/12:00am - - - - - ESE 56 67 30 36 1011.7 1011.6 -
 
Date/Time
WST
Temp
°C
App
Temp
°C
Dew
Point
Rel
Hum
%
Delta-T
°C
Wind Press
QNH
hPa
Press
MSL
hPa
Rain
since 9 am
mm
Dir
 
Spd
km/h
Gust
km/h
Spd
kts
Gust
kts
19/11:30pm - - - - - ESE 56 67 30 36 1011.6 1011.6 -
19/11:00pm - - - - - ESE 52 63 28 34 1012.2 1011.9 -
19/10:30pm - - - - - ESE 54 63 29 34 1012.2 1012.2 -
19/10:00pm - - - - - ESE 54 69 29 37 1012.1 1012.2 -
19/09:30pm - - - - - ESE 54 63 29 34 1012.4 1012.4 -
19/09:00pm - - - - - SE 57 67 31 36 1011.8 1012.0 -
19/08:30pm - - - - - ESE 54 65 29 35 1011.9 1011.9 -
19/08:00pm - - - - - ESE 52 63 28 34 1011.4 1011.4 -
19/07:30pm - - - - - ESE 44 52 24 28 1011.2 1011.2 -
19/07:00pm - - - - - SE 35 43 19 23 1011.6 1011.5 -
19/06:30pm - - - - - SE 33 37 18 20 1011.6 1011.6 -
19/06:00pm - - - - - ESE 22 28 12 15 1011.3 1011.2 -
19/05:30pm - - - - - SE 22 26 12 14 1010.6 1010.6 -
19/05:00pm - - - - - ESE 22 26 12 14 1010.2 1010.4 -
19/04:30pm - - - - - ESE 24 28 13 15 1009.6 1009.6 -
19/04:00pm - - - - - E 17 20 9 11 1009.9 1009.7 -
19/03:30pm - - - - - ENE 17 19 9 10 1010.1 1010.1 -
19/03:00pm - - - - - ENE 19 20 10 11 1010.2 1010.0 -
19/02:30pm - - - - - ENE 20 22 11 12 1010.5 1010.5 -
19/02:00pm - - - - - ENE 20 22 11 12 1010.6 1010.5 -
19/01:30pm - - - - - ENE 22 26 12 14 1011.0 1011.0 -
19/01:00pm - - - - - ENE 22 26 12 14 1011.4 1011.3 -
19/12:30pm - - - - - E 24 28 13 15 1011.5 1011.5 -
19/12:00pm - - - - - E 26 32 14 17 1011.8 1011.7 -
19/11:30am - - - - - E 28 33 15 18 1012.2 1012.2 -
19/11:00am - - - - - E 30 35 16 19 1012.5 1012.4 -
19/10:30am - - - - - E 30 35 16 19 1012.6 1012.6 -
19/10:00am - - - - - E 33 39 18 21 1012.6 1012.5 -
19/09:30am - - - - - E 33 39 18 21 1012.6 1012.6 -
19/09:00am - - - - - ESE 35 43 19 23 1012.1 1012.2 -
19/08:30am - - - - - ESE 39 44 21 24 1012.0 1012.0 -
19/08:00am - - - - - ESE 41 46 22 25 1011.5 1011.5 -
19/07:30am - - - - - ESE 41 46 22 25 1011.2 1011.2 -
19/07:00am - - - - - ESE 39 46 21 25 1011.0 1011.0 -
19/06:30am - - - - - ESE 37 44 20 24 1011.0 1011.0 -
19/06:00am - - - - - ESE 37 44 20 24 1011.1 1011.1 -
19/05:30am - - - - - ESE 39 46 21 25 1010.8 1010.8 -
19/05:00am - - - - - ESE 39 46 21 25 1010.3 1010.5 -
19/04:30am - - - - - ESE 39 46 21 25 1009.6 1009.6 -
19/04:00am - - - - - ESE 41 46 22 25 1009.5 1009.4 -
19/03:30am - - - - - ESE 43 52 23 28 1009.3 1009.3 -
19/03:00am - - - - - ESE 44 54 24 29 1009.4 1009.3 -
19/02:30am - - - - - ESE 39 50 21 27 1010.0 1010.0 -
19/02:00am - - - - - ESE 39 48 21 26 1010.6 1010.2 -
19/01:30am - - - - - ESE 35 41 19 22 1010.7 1010.7 -
19/01:00am - - - - - ESE 35 41 19 22 1010.9 1010.9 -
19/12:30am - - - - - ESE 35 41 19 22 1011.2 1011.2 -
19/12:00am - - - - - ESE 32 35 17 19 1011.7 1011.4 -
 
Date/Time
WST
Temp
°C
App
Temp
°C
Dew
Point
Rel
Hum
%
Delta-T
°C
Wind Press
QNH
hPa
Press
MSL
hPa
Rain
since 9 am
mm
Dir
 
Spd
km/h
Gust
km/h
Spd
kts
Gust
kts
18/11:30pm - - - - - ESE 28 35 15 19 1011.9 1011.9 -
18/11:00pm - - - - - ESE 26 30 14 16 1012.2 1012.0 -
18/10:30pm - - - - - ESE 26 30 14 16 1012.5 1012.5 -
18/10:00pm - - - - - ESE 28 32 15 17 1012.5 1012.5 -
18/09:30pm - - - - - ESE 30 35 16 19 1012.4 1012.4 -
18/09:00pm - - - - - ESE 32 35 17 19 1012.3 1012.3 -
18/08:30pm - - - - - ESE 33 37 18 20 1012.0 1012.0 -
18/08:00pm - - - - - ESE 30 35 16 19 1011.8 1011.8 -
18/07:30pm - - - - - ESE 30 35 16 19 1011.3 1011.3 -
18/07:00pm - - - - - ESE 30 33 16 18 1010.8 1010.8 -
18/06:30pm - - - - - ESE 30 33 16 18 1010.5 1010.5 -
18/06:00pm - - - - - ESE 30 35 16 19 1010.2 1010.1 -

Other Formats:

Comma delimited format used in spreadsheet applications
http://www.bom.gov.au/fwo/IDW60801/IDW60801.94207.axf

JavaScript Object Notation format (JSON) in row-major order
http://www.bom.gov.au/fwo/IDW60801/IDW60801.94207.json